Garneill, Montana
Current Conditions -  °F | °C
As of 8:54 PM on Thursday 27 Nov 2014 (Local Time) from KLWT Reporting Station
Clear Clear  
Wind Chill: 39°   Ceiling: Unl
Heat Index: 44°   Visibility: 10mi
Dew Point: 32°   Wind: 9mph
Humidity: 63%   Direction: 240°WSW
Pressure: 29.73"   Gusts: NA
Location:  46.75°N, 109.75°W
Report Text: KLWT 280354Z AUTO 24008KT 10SM CLR 07/00 A2973 RMK AO2 SLP070 T00670000
Loading
Personal Weather Stations






























Interactive Weather Map New forecast layout! Learn more

10-Day Weather Forecast

Advertisements
Track Severe Weather on mobile